Time;durP1;ratioP1;P1;durP2;ratioP2;P2;SDS_P1;SDS_P2;PMS_P1;PMS_P2;Temp;Humidity;BMP_temperature;BMP_pressure;BME280_temperature;BME280_humidity;BME280_pressure;Samples;Min_cycle;Max_cycle;Signal;HPM_P1;HPM_P2
2022/09/27 00:00:41;;;;;;;2.57;2.37;;;17.20;99.90;;;;;;5000711;28;20204;-66
2022/09/27 00:03:11;;;;;;;4.77;2.60;;;17.20;99.90;;;;;;5016263;28;20192;-67
2022/09/27 00:05:38;;;;;;;3.67;2.50;;;17.20;99.90;;;;;;5011657;28;20209;-67
2022/09/27 00:08:05;;;;;;;6.83;3.10;;;17.20;99.90;;;;;;5008235;28;20734;-67
2022/09/27 00:10:31;;;;;;;7.23;2.97;;;17.20;99.90;;;;;;4995920;28;20287;-67
2022/09/27 00:12:58;;;;;;;5.13;2.80;;;17.20;99.90;;;;;;5017107;28;20193;-66
2022/09/27 00:15:25;;;;;;;5.60;3.00;;;17.30;99.90;;;;;;5009038;28;20539;-67
2022/09/27 00:17:51;;;;;;;5.93;3.40;;;17.30;99.90;;;;;;4999729;28;20602;-66
2022/09/27 00:20:20;;;;;;;4.67;3.30;;;17.40;99.90;;;;;;4994288;28;20192;-67
2022/09/27 00:22:50;;;;;;;9.93;3.67;;;17.50;99.90;;;;;;5016651;28;20677;-67
2022/09/27 00:25:19;;;;;;;4.70;3.93;;;17.50;99.90;;;;;;5007200;28;20233;-66
2022/09/27 00:27:45;;;;;;;4.87;3.60;;;17.50;99.90;;;;;;4999978;28;21040;-67
2022/09/27 00:30:12;;;;;;;6.40;3.83;;;17.60;99.90;;;;;;5001622;28;20244;-66
2022/09/27 00:32:39;;;;;;;5.17;3.77;;;17.50;99.90;;;;;;4987319;28;20194;-66
2022/09/27 00:35:07;;;;;;;5.67;3.50;;;17.40;99.90;;;;;;5004638;28;20826;-67
2022/09/27 00:37:34;;;;;;;4.90;3.87;;;17.40;99.90;;;;;;5005082;28;20893;-67
2022/09/27 00:40:01;;;;;;;5.07;3.47;;;17.50;99.90;;;;;;4998923;28;20940;-67
2022/09/27 00:42:27;;;;;;;6.50;3.73;;;17.50;99.90;;;;;;5009743;28;20196;-66
2022/09/27 00:45:03;;;;;;;9.80;3.87;;;17.50;99.90;;;;;;5004904;28;20586;-67
2022/09/27 00:47:34;;;;;;;3.93;3.10;;;17.50;99.90;;;;;;4998120;28;20286;-67
2022/09/27 00:50:42;;;;;;;6.23;3.47;;;17.40;99.90;;;;;;5011576;28;20599;-67
2022/09/27 00:53:30;;;;;;;8.03;2.87;;;17.40;99.90;;;;;;5002320;28;20671;-66
2022/09/27 00:56:03;;;;;;;3.70;2.80;;;17.40;99.90;;;;;;4998540;28;20200;-67
2022/09/27 00:58:44;;;;;;;4.83;2.80;;;17.40;99.90;;;;;;5002538;28;20274;-66
2022/09/27 01:01:12;;;;;;;4.30;2.60;;;17.30;99.90;;;;;;4999138;28;20199;-67
2022/09/27 01:04:17;;;;;;;2.33;1.97;;;17.20;99.90;;;;;;4975431;28;20232;-67
2022/09/27 01:06:43;;;;;;;6.53;2.10;;;17.10;99.90;;;;;;4999798;28;20196;-66
2022/09/27 01:09:11;;;;;;;3.50;1.90;;;17.10;99.90;;;;;;5013894;28;20184;-66
2022/09/27 01:12:14;;;;;;;2.30;2.00;;;17.20;99.90;;;;;;4983734;28;20983;-66
2022/09/27 01:14:58;;;;;;;2.80;1.80;;;17.20;99.90;;;;;;5000695;28;20259;-67
2022/09/27 01:18:05;;;;;;;5.03;1.80;;;17.20;99.90;;;;;;4985297;28;20204;-67
2022/09/27 01:21:17;;;;;;;1.57;1.40;;;17.20;99.90;;;;;;4999588;28;20866;-67
2022/09/27 01:24:06;;;;;;;2.17;1.30;;;17.20;99.90;;;;;;4975230;28;20530;-67
2022/09/27 01:27:29;;;;;;;2.13;1.30;;;17.20;99.90;;;;;;5015250;28;20193;-66
2022/09/27 01:30:40;;;;;;;2.60;1.03;;;17.10;99.90;;;;;;4992583;28;20272;-67
2022/09/27 01:33:39;;;;;;;3.77;1.17;;;17.10;99.90;;;;;;5002341;28;20276;-67
2022/09/27 01:36:37;;;;;;;2.07;1.27;;;17.10;99.90;;;;;;5005670;28;20730;-67
2022/09/27 01:39:43;;;;;;;1.87;1.20;;;17.10;99.90;;;;;;5005368;28;20321;-67
2022/09/27 01:42:27;;;;;;;2.80;1.40;;;17.20;99.90;;;;;;4985659;28;20193;-66
2022/09/27 01:45:05;;;;;;;2.50;1.20;;;17.10;99.90;;;;;;4998892;28;20569;-66
2022/09/27 01:47:44;;;;;;;3.33;1.17;;;16.90;99.90;;;;;;4988842;28;20192;-67
2022/09/27 01:50:39;;;;;;;2.40;1.17;;;16.80;99.90;;;;;;4992507;28;20246;-67
2022/09/27 01:53:20;;;;;;;2.00;1.00;;;16.70;99.90;;;;;;5001263;28;20276;-67
2022/09/27 01:55:51;;;;;;;2.50;1.17;;;16.70;99.90;;;;;;5001513;28;20205;-67
2022/09/27 01:58:35;;;;;;;2.07;1.03;;;16.70;99.90;;;;;;5009641;28;20285;-67
2022/09/27 02:01:03;;;;;;;1.57;1.23;;;16.60;99.90;;;;;;5012861;28;20185;-67
2022/09/27 02:03:36;;;;;;;1.90;1.20;;;16.60;99.90;;;;;;5003964;28;20185;-67
2022/09/27 02:06:15;;;;;;;3.30;1.40;;;16.60;99.90;;;;;;4991739;28;20221;-67
2022/09/27 02:09:03;;;;;;;2.60;1.47;;;16.50;99.90;;;;;;5007753;28;20177;-67
2022/09/27 02:11:30;;;;;;;5.10;1.30;;;16.40;99.90;;;;;;5012704;28;20173;-67
2022/09/27 02:14:38;;;;;;;2.67;1.00;;;16.50;99.90;;;;;;5012822;28;20173;-67
2022/09/27 02:17:31;;;;;;;3.10;1.30;;;16.40;99.90;;;;;;5011786;28;20193;-67
2022/09/27 02:20:19;;;;;;;2.00;1.23;;;16.50;99.90;;;;;;5011101;28;20234;-67
2022/09/27 02:23:04;;;;;;;2.37;1.43;;;16.50;99.90;;;;;;4994573;28;20187;-67
2022/09/27 02:25:57;;;;;;;2.83;1.30;;;16.50;99.90;;;;;;5012148;28;20570;-67
2022/09/27 02:28:40;;;;;;;3.00;1.50;;;16.50;99.90;;;;;;5012444;28;20201;-67
2022/09/27 02:31:10;;;;;;;2.53;1.40;;;16.50;99.90;;;;;;5012453;28;20181;-66
2022/09/27 02:33:48;;;;;;;1.87;1.50;;;16.50;99.90;;;;;;5011190;28;20197;-67
2022/09/27 02:36:16;;;;;;;2.70;1.53;;;16.50;99.90;;;;;;5011754;28;20199;-67
2022/09/27 02:38:46;;;;;;;3.47;1.23;;;16.50;99.90;;;;;;5011031;28;20187;-67
2022/09/27 02:41:20;;;;;;;3.67;1.50;;;16.60;99.90;;;;;;5021340;28;20202;-67
2022/09/27 02:43:54;;;;;;;4.73;1.33;;;16.60;99.90;;;;;;5014737;28;20193;-67
2022/09/27 02:46:30;;;;;;;3.03;1.50;;;16.60;99.90;;;;;;5017463;28;20229;-67
2022/09/27 02:49:43;;;;;;;3.10;1.50;;;16.60;99.90;;;;;;5006269;28;20184;-67
2022/09/27 02:52:37;;;;;;;1.77;1.33;;;16.60;99.90;;;;;;5002462;28;20596;-67
2022/09/27 02:55:26;;;;;;;1.93;1.10;;;16.60;99.90;;;;;;4982805;28;20199;-67
2022/09/27 02:58:15;;;;;;;6.20;1.80;;;16.60;99.90;;;;;;5012166;28;20197;-67
2022/09/27 03:01:08;;;;;;;3.73;1.33;;;16.60;99.90;;;;;;5011136;28;20189;-66
2022/09/27 03:04:22;;;;;;;3.67;1.53;;;16.60;99.90;;;;;;5007340;28;20201;-67
2022/09/27 03:06:52;;;;;;;4.30;1.33;;;16.60;99.90;;;;;;4976909;28;20212;-67
2022/09/27 03:09:29;;;;;;;1.93;1.00;;;16.60;99.90;;;;;;5016999;28;20200;-67
2022/09/27 03:11:55;;;;;;;4.30;1.13;;;16.60;99.90;;;;;;5011722;28;20193;-67
2022/09/27 03:14:21;;;;;;;1.30;1.20;;;16.60;99.90;;;;;;5011578;28;20185;-67
2022/09/27 03:16:48;;;;;;;2.97;1.30;;;16.60;99.90;;;;;;5012135;28;20199;-67
2022/09/27 03:19:14;;;;;;;2.70;1.10;;;16.60;99.90;;;;;;5011714;28;20200;-67
2022/09/27 03:21:40;;;;;;;2.53;1.13;;;16.60;99.90;;;;;;5011637;28;20705;-67
2022/09/27 03:24:08;;;;;;;1.27;1.00;;;16.60;99.90;;;;;;5017274;28;20333;-67
2022/09/27 03:26:34;;;;;;;1.93;1.00;;;16.60;99.90;;;;;;5008942;28;20231;-67
2022/09/27 03:29:02;;;;;;;1.13;1.03;;;16.60;99.90;;;;;;5011961;28;20207;-67
2022/09/27 03:31:30;;;;;;;2.63;1.30;;;16.70;99.90;;;;;;5011278;28;20196;-67
2022/09/27 03:33:56;;;;;;;1.50;1.10;;;16.70;99.90;;;;;;5010264;28;20650;-67
2022/09/27 03:36:23;;;;;;;2.90;1.10;;;16.70;99.90;;;;;;5006015;28;20291;-67
2022/09/27 03:38:49;;;;;;;2.70;1.37;;;16.70;99.90;;;;;;5014655;28;20194;-67
2022/09/27 03:41:15;;;;;;;5.87;1.40;;;16.70;99.90;;;;;;5004752;28;20231;-67
2022/09/27 03:43:42;;;;;;;2.27;1.03;;;16.70;99.90;;;;;;5011059;28;20189;-67
2022/09/27 03:46:08;;;;;;;4.47;1.30;;;16.70;99.90;;;;;;5010949;28;20235;-67
2022/09/27 03:48:35;;;;;;;3.37;1.17;;;16.70;99.90;;;;;;5010772;28;20192;-67
2022/09/27 03:51:03;;;;;;;2.53;1.20;;;16.70;99.90;;;;;;5011426;28;20235;-67
2022/09/27 03:53:30;;;;;;;4.50;1.40;;;16.80;99.90;;;;;;5010925;28;20717;-67
2022/09/27 03:55:56;;;;;;;2.53;1.20;;;16.80;99.90;;;;;;5010826;28;20197;-67
2022/09/27 03:58:22;;;;;;;1.70;1.10;;;16.90;99.90;;;;;;4991148;28;20192;-67
2022/09/27 04:00:48;;;;;;;2.63;1.20;;;16.90;99.90;;;;;;5019545;28;20210;-67
2022/09/27 04:03:16;;;;;;;3.23;1.20;;;16.90;99.90;;;;;;5004093;28;20193;-67
2022/09/27 04:05:43;;;;;;;7.03;1.40;;;16.90;99.90;;;;;;5009211;28;20208;-67
2022/09/27 04:08:10;;;;;;;7.17;1.67;;;16.90;99.90;;;;;;5010816;28;20180;-67
2022/09/27 04:10:37;;;;;;;3.77;1.60;;;16.90;99.90;;;;;;5023748;28;20235;-67
2022/09/27 04:13:05;;;;;;;7.07;1.77;;;16.90;99.90;;;;;;5010876;28;20271;-67
2022/09/27 04:15:31;;;;;;;5.03;1.33;;;16.90;99.90;;;;;;5024564;28;20189;-67
2022/09/27 04:17:57;;;;;;;8.87;1.57;;;16.90;99.90;;;;;;5025474;28;20631;-67
2022/09/27 04:20:24;;;;;;;3.57;1.30;;;17.00;99.90;;;;;;5010702;28;20196;-67
2022/09/27 04:22:50;;;;;;;4.27;1.40;;;17.00;99.90;;;;;;4982685;28;20201;-67
2022/09/27 04:25:17;;;;;;;5.07;1.60;;;17.00;99.90;;;;;;5009815;28;20220;-67
2022/09/27 04:27:47;;;;;;;5.90;1.57;;;17.00;99.90;;;;;;5008166;28;20193;-67
2022/09/27 04:30:17;;;;;;;3.87;1.40;;;17.10;99.90;;;;;;4988054;28;20822;-67
2022/09/27 04:32:44;;;;;;;5.30;1.43;;;17.10;99.90;;;;;;5013454;28;20193;-67
2022/09/27 04:37:58;;;;;;;5.50;1.40;;;17.10;99.90;;;;;;5012955;28;20579;-67
2022/09/27 04:40:28;;;;;;;4.33;1.50;;;17.10;99.90;;;;;;5006220;28;20192;-66
2022/09/27 04:42:55;;;;;;;5.30;1.47;;;17.20;99.90;;;;;;5010257;28;20275;-67
2022/09/27 04:45:23;;;;;;;10.90;1.67;;;17.10;99.90;;;;;;5003421;28;20212;-67
2022/09/27 04:47:50;;;;;;;5.73;1.87;;;17.20;99.90;;;;;;5000744;28;20276;-67
2022/09/27 04:50:19;;;;;;;6.67;1.53;;;17.20;99.90;;;;;;5003913;28;20629;-67
2022/09/27 04:52:53;;;;;;;5.87;1.70;;;17.20;99.90;;;;;;5010256;28;20200;-67
2022/09/27 04:55:21;;;;;;;5.50;1.47;;;17.30;99.90;;;;;;5009677;28;20197;-67
2022/09/27 04:57:49;;;;;;;7.20;1.73;;;17.30;99.90;;;;;;5003678;28;20623;-67
2022/09/27 05:00:17;;;;;;;7.90;1.50;;;17.30;99.90;;;;;;5005459;28;20200;-67
2022/09/27 05:02:44;;;;;;;8.63;1.50;;;17.40;99.90;;;;;;5011078;28;20220;-67
2022/09/27 05:05:11;;;;;;;5.10;1.60;;;17.50;99.90;;;;;;5009878;28;20332;-67
2022/09/27 05:07:38;;;;;;;5.27;1.70;;;17.60;99.90;;;;;;5003817;28;20189;-67
2022/09/27 05:10:06;;;;;;;4.73;1.57;;;17.70;99.90;;;;;;5014629;28;20806;-67
2022/09/27 05:12:32;;;;;;;5.00;1.40;;;17.80;99.90;;;;;;5008584;28;20176;-67
2022/09/27 05:14:58;;;;;;;4.87;1.60;;;17.90;99.90;;;;;;5009886;28;20185;-67
2022/09/27 05:17:25;;;;;;;5.73;1.70;;;18.00;99.90;;;;;;5008262;28;20644;-67
2022/09/27 05:19:53;;;;;;;5.60;1.40;;;18.10;99.90;;;;;;5024387;28;20204;-67
2022/09/27 05:22:19;;;;;;;6.90;1.33;;;18.20;99.90;;;;;;5021281;28;20996;-67
2022/09/27 05:24:47;;;;;;;4.30;1.43;;;18.30;99.90;;;;;;5011100;28;20247;-67
2022/09/27 05:27:19;;;;;;;5.60;1.37;;;18.30;99.90;;;;;;5014935;28;20201;-65
2022/09/27 05:29:49;;;;;;;3.77;1.70;;;18.40;99.90;;;;;;5004767;28;20244;-67
2022/09/27 05:32:16;;;;;;;5.97;1.60;;;18.50;99.90;;;;;;4998977;28;20196;-67
2022/09/27 05:34:42;;;;;;;8.47;1.60;;;18.60;99.90;;;;;;5001175;28;20201;-64
2022/09/27 05:37:08;;;;;;;5.27;1.70;;;18.70;99.90;;;;;;5020642;28;20208;-67
2022/09/27 05:39:35;;;;;;;5.37;1.70;;;18.80;99.90;;;;;;4995070;28;20740;-67
2022/09/27 05:42:03;;;;;;;4.53;1.30;;;18.80;99.90;;;;;;5000264;28;20189;-67
2022/09/27 05:44:30;;;;;;;7.40;1.73;;;18.80;99.90;;;;;;5024792;28;20192;-66
2022/09/27 05:46:59;;;;;;;4.07;1.27;;;18.90;99.90;;;;;;4992091;28;20516;-65
2022/09/27 05:49:25;;;;;;;4.13;1.43;;;19.00;98.90;;;;;;5013301;28;20178;-65
2022/09/27 05:51:51;;;;;;;5.97;1.37;;;19.00;98.60;;;;;;5017596;28;20187;-65
2022/09/27 05:54:18;;;;;;;6.23;1.60;;;19.10;99.30;;;;;;5014449;28;20196;-66
2022/09/27 05:56:44;;;;;;;5.73;1.57;;;19.10;99.60;;;;;;4977550;28;20197;-66
2022/09/27 05:59:10;;;;;;;6.80;1.60;;;19.00;99.40;;;;;;5016389;28;20548;-65
2022/09/27 06:01:36;;;;;;;4.30;1.30;;;19.10;99.10;;;;;;4998615;28;20250;-65
2022/09/27 06:04:04;;;;;;;11.17;1.40;;;19.10;98.50;;;;;;5020297;28;20321;-67
2022/09/27 06:06:35;;;;;;;8.17;2.07;;;19.20;98.70;;;;;;5017740;28;20689;-65
2022/09/27 06:09:01;;;;;;;2.80;1.33;;;19.20;98.00;;;;;;5012625;28;20173;-67
2022/09/27 06:11:28;;;;;;;6.13;1.63;;;19.30;98.20;;;;;;5012850;28;20192;-66
2022/09/27 06:13:55;;;;;;;5.90;1.47;;;19.40;97.30;;;;;;5019987;28;20335;-67
2022/09/27 06:16:21;;;;;;;6.90;1.50;;;19.40;98.20;;;;;;5011231;28;20677;-65
2022/09/27 06:18:48;;;;;;;3.83;1.23;;;19.50;98.20;;;;;;5010960;28;20192;-67
2022/09/27 06:21:14;;;;;;;3.93;1.33;;;19.50;97.90;;;;;;4994809;28;20181;-67
2022/09/27 06:23:41;;;;;;;3.73;1.33;;;19.60;98.40;;;;;;4994277;28;20258;-67
2022/09/27 06:26:08;;;;;;;4.67;1.37;;;19.60;97.80;;;;;;5004949;28;20224;-67
2022/09/27 06:28:35;;;;;;;7.40;1.50;;;19.70;96.60;;;;;;5011931;28;20263;-67
2022/09/27 06:31:01;;;;;;;2.03;1.20;;;19.90;96.60;;;;;;5009559;28;20180;-67
2022/09/27 06:33:28;;;;;;;5.07;1.60;;;19.90;97.40;;;;;;5003944;28;20756;-67
2022/09/27 06:35:54;;;;;;;8.30;1.83;;;20.00;97.00;;;;;;4968526;28;20208;-67
2022/09/27 06:38:21;;;;;;;2.53;1.50;;;20.00;97.00;;;;;;5012750;28;20213;-67
2022/09/27 06:40:50;;;;;;;7.97;1.77;;;20.00;97.10;;;;;;5008928;28;20204;-68
2022/09/27 06:43:19;;;;;;;8.17;1.90;;;20.10;97.20;;;;;;5009323;28;20646;-68
2022/09/27 06:45:47;;;;;;;5.17;1.60;;;20.20;97.30;;;;;;4974045;28;20205;-68
2022/09/27 06:48:15;;;;;;;7.50;1.97;;;20.30;97.90;;;;;;5000995;28;20185;-68
2022/09/27 06:50:46;;;;;;;9.20;1.87;;;20.30;97.90;;;;;;5010283;28;20185;-68
2022/09/27 06:53:15;;;;;;;7.57;1.60;;;20.40;96.70;;;;;;5011979;28;20192;-68
2022/09/27 06:55:42;;;;;;;6.63;1.73;;;20.50;97.30;;;;;;4996790;28;20531;-68
2022/09/27 07:00:57;;;;;;;15.57;2.80;;;20.90;97.80;;;;;;5009016;28;20195;-68
2022/09/27 07:03:30;;;;;;;14.10;2.40;;;21.30;98.00;;;;;;4989317;28;20185;-68
2022/09/27 07:06:02;;;;;;;12.67;2.30;;;21.40;98.80;;;;;;5003371;28;20208;-68
2022/09/27 07:08:29;;;;;;;15.23;2.78;;;21.40;98.90;;;;;;5015141;28;20211;-68
2022/09/27 07:11:05;;;;;;;12.50;2.67;;;21.70;99.10;;;;;;5006296;28;20184;-67
2022/09/27 07:13:33;;;;;;;15.73;3.03;;;21.90;99.20;;;;;;5016071;28;20180;-67
2022/09/27 07:16:02;;;;;;;10.50;2.70;;;22.00;98.60;;;;;;5002564;28;20193;-67
2022/09/27 07:18:29;;;;;;;14.95;2.80;;;22.10;99.10;;;;;;4992407;28;20590;-67
2022/09/27 07:20:58;;;;;;;16.63;3.05;;;22.20;99.40;;;;;;5012120;28;20194;-67
2022/09/27 07:23:25;;;;;;;13.95;2.95;;;22.30;99.00;;;;;;5005354;28;20189;-67
2022/09/27 07:25:52;;;;;;;12.98;2.80;;;22.50;99.00;;;;;;5011082;28;20207;-67
2022/09/27 07:28:20;;;;;;;10.23;2.30;;;22.60;99.70;;;;;;5010015;28;20189;-68
2022/09/27 07:30:46;;;;;;;15.02;2.78;;;22.70;99.00;;;;;;5010325;28;20173;-67
2022/09/27 07:33:16;;;;;;;12.15;2.72;;;22.80;98.80;;;;;;4999161;28;20197;-67
2022/09/27 07:35:42;;;;;;;9.13;2.67;;;23.00;99.00;;;;;;5004570;28;20551;-68
2022/09/27 07:38:14;;;;;;;13.23;2.55;;;23.10;99.10;;;;;;5016078;28;20192;-67
2022/09/27 07:40:41;;;;;;;10.43;2.78;;;23.20;99.40;;;;;;5006464;28;20227;-67
2022/09/27 07:43:11;;;;;;;24.13;3.25;;;23.30;99.10;;;;;;5001754;28;20204;-67
2022/09/27 07:45:38;;;;;;;28.55;3.25;;;23.30;99.20;;;;;;5006572;28;20212;-67
2022/09/27 07:48:13;;;;;;;10.45;3.05;;;23.40;99.10;;;;;;5001499;28;20188;-67
2022/09/27 07:50:40;;;;;;;14.98;2.75;;;23.50;99.00;;;;;;5005653;28;20682;-67
2022/09/27 07:53:06;;;;;;;15.52;2.92;;;23.50;99.40;;;;;;5000281;28;20239;-67
2022/09/27 07:55:33;;;;;;;13.50;2.70;;;23.60;99.40;;;;;;4988503;28;20225;-67
2022/09/27 07:58:09;;;;;;;19.02;3.35;;;23.60;99.40;;;;;;5017043;28;20672;-67
2022/09/27 08:00:39;;;;;;;17.70;3.25;;;23.80;99.60;;;;;;5015617;28;20184;-67
2022/09/27 08:03:16;;;;;;;12.30;2.72;;;23.90;99.50;;;;;;5010442;28;20185;-67
2022/09/27 08:05:48;;;;;;;17.80;3.15;;;23.90;99.30;;;;;;4989228;28;20231;-67
2022/09/27 08:08:17;;;;;;;20.48;2.83;;;24.00;99.60;;;;;;4963789;28;20194;-67
2022/09/27 08:10:45;;;;;;;15.82;3.00;;;24.10;99.50;;;;;;5017010;28;20530;-67
2022/09/27 08:13:18;;;;;;;18.02;3.42;;;24.20;99.50;;;;;;5014229;28;20188;-67
2022/09/27 08:15:47;;;;;;;17.15;3.05;;;24.20;99.30;;;;;;5006331;28;20193;-67
2022/09/27 08:18:14;;;;;;;16.83;3.10;;;24.30;99.40;;;;;;5007593;28;20224;-67
2022/09/27 08:20:40;;;;;;;20.65;2.60;;;24.30;98.80;;;;;;5013645;28;20270;-67
2022/09/27 08:23:06;;;;;;;16.83;3.05;;;24.40;98.90;;;;;;5009430;28;20889;-67
2022/09/27 08:25:33;;;;;;;13.40;2.70;;;24.40;98.90;;;;;;4989008;28;20304;-67
2022/09/27 08:28:05;;;;;;;18.17;2.90;;;24.40;98.90;;;;;;5002932;28;20192;-67
2022/09/27 08:30:32;;;;;;;12.35;2.60;;;24.50;99.10;;;;;;5009067;28;20658;-66
2022/09/27 08:33:04;;;;;;;15.13;3.60;;;24.50;99.30;;;;;;5006952;28;20200;-67
2022/09/27 08:35:32;;;;;;;10.55;2.67;;;24.70;99.00;;;;;;5012521;28;20274;-67
2022/09/27 08:38:01;;;;;;;14.60;3.20;;;24.70;99.30;;;;;;4999838;28;20193;-67
2022/09/27 08:40:46;;;;;;;18.20;2.80;;;24.70;99.40;;;;;;5012815;28;20203;-67
2022/09/27 08:43:40;;;;;;;17.60;3.28;;;24.90;99.50;;;;;;5015312;28;20220;-66
2022/09/27 08:46:48;;;;;;;14.35;2.90;;;24.90;99.10;;;;;;4991944;28;20220;-67
2022/09/27 08:49:42;;;;;;;10.32;2.35;;;25.00;99.10;;;;;;5007305;28;20275;-67
2022/09/27 08:52:29;;;;;;;15.70;3.08;;;25.00;98.80;;;;;;4990188;28;20180;-67
2022/09/27 08:55:02;;;;;;;17.25;3.50;;;25.10;99.10;;;;;;5017561;28;20188;-67
2022/09/27 08:57:28;;;;;;;17.15;4.40;;;25.20;99.20;;;;;;5009418;28;20195;-67
2022/09/27 09:00:11;;;;;;;11.10;3.20;;;25.30;98.70;;;;;;5010137;28;20185;-67
2022/09/27 09:02:40;;;;;;;12.93;3.75;;;25.30;98.70;;;;;;5011042;28;20240;-67
2022/09/27 09:05:22;;;;;;;15.15;3.65;;;25.40;98.10;;;;;;5000004;28;20212;-67
2022/09/27 09:08:09;;;;;;;13.45;3.13;;;25.40;98.60;;;;;;5008762;28;20185;-67
2022/09/27 09:14:22;;;;;;;15.55;3.03;;;25.80;98.80;;;;;;4962729;28;20197;-68
2022/09/27 09:17:18;;;;;;;16.90;2.75;;;25.90;98.40;;;;;;4987982;28;20192;-68
2022/09/27 09:20:08;;;;;;;15.82;2.95;;;26.10;98.40;;;;;;4987746;28;20200;-65
2022/09/27 09:23:16;;;;;;;14.55;2.80;;;26.30;98.40;;;;;;5009987;28;20201;-65
2022/09/27 09:26:08;;;;;;;14.82;2.40;;;26.60;98.20;;;;;;5004850;28;20216;-66
2022/09/27 09:29:14;;;;;;;16.75;3.42;;;26.70;98.20;;;;;;5016141;28;20197;-65
2022/09/27 09:31:52;;;;;;;22.65;3.25;;;27.30;97.00;;;;;;5006859;28;20830;-66
2022/09/27 09:34:41;;;;;;;15.65;3.38;;;27.60;97.00;;;;;;5020775;28;20215;-65
2022/09/27 09:37:44;;;;;;;11.60;2.92;;;27.80;96.60;;;;;;4990035;28;20261;-65
2022/09/27 09:40:40;;;;;;;14.63;3.03;;;28.10;96.60;;;;;;5001991;28;20192;-66
2022/09/27 09:43:34;;;;;;;16.98;3.47;;;28.00;96.10;;;;;;5007781;28;20193;-67
2022/09/27 09:46:35;;;;;;;15.80;2.92;;;28.10;96.80;;;;;;4999664;28;20220;-66
2022/09/27 09:49:16;;;;;;;14.38;2.80;;;28.10;97.10;;;;;;5004021;28;20844;-66
2022/09/27 09:51:57;;;;;;;16.42;3.22;;;28.20;96.70;;;;;;4999617;28;20558;-66
2022/09/27 09:54:36;;;;;;;14.35;2.85;;;28.70;95.90;;;;;;4985256;28;20216;-67
2022/09/27 09:57:35;;;;;;;15.30;2.90;;;28.60;95.50;;;;;;5016264;28;20904;-67
2022/09/27 10:00:22;;;;;;;21.05;3.05;;;28.50;96.00;;;;;;5002001;28;20197;-66
2022/09/27 10:02:52;;;;;;;14.25;3.35;;;28.60;96.40;;;;;;5007968;28;20193;-66
2022/09/27 10:05:23;;;;;;;22.77;3.75;;;28.80;95.80;;;;;;5006557;28;20209;-66
2022/09/27 10:07:54;;;;;;;29.17;4.13;;;28.80;95.90;;;;;;5004108;28;20196;-66
2022/09/27 10:10:21;;;;;;;17.33;3.28;;;28.90;95.90;;;;;;5010268;28;20194;-66
2022/09/27 10:12:49;;;;;;;18.70;3.55;;;29.30;95.90;;;;;;5008986;28;20208;-66
2022/09/27 10:15:23;;;;;;;16.83;2.75;;;29.30;96.10;;;;;;4992326;28;20326;-66
2022/09/27 10:17:56;;;;;;;16.10;3.10;;;29.60;95.90;;;;;;5001957;28;20775;-66
2022/09/27 10:20:29;;;;;;;14.52;2.63;;;29.90;95.60;;;;;;4993201;28;20564;-66
2022/09/27 10:23:10;;;;;;;15.82;2.90;;;30.40;95.50;;;;;;5010888;28;20582;-65
2022/09/27 10:25:59;;;;;;;18.15;3.40;;;32.20;95.00;;;;;;5014029;28;20336;-66
2022/09/27 10:28:44;;;;;;;17.50;3.08;;;31.70;94.30;;;;;;5016609;28;20189;-66
2022/09/27 10:31:16;;;;;;;23.83;3.38;;;31.20;94.70;;;;;;5017243;28;20185;-66
2022/09/27 10:34:01;;;;;;;10.50;2.88;;;30.50;95.20;;;;;;5004616;28;20211;-66
2022/09/27 10:36:32;;;;;;;10.52;2.63;;;30.30;95.70;;;;;;4997650;28;21103;-66
2022/09/27 10:39:04;;;;;;;15.52;3.20;;;30.40;95.40;;;;;;4998941;28;20204;-66
2022/09/27 10:41:40;;;;;;;22.02;2.88;;;30.40;94.90;;;;;;4993553;28;20578;-66
2022/09/27 10:44:18;;;;;;;18.63;2.92;;;30.60;95.00;;;;;;5014125;28;20199;-67
2022/09/27 10:46:52;;;;;;;20.92;3.40;;;32.70;94.00;;;;;;5005859;28;20674;-66
2022/09/27 10:49:24;;;;;;;17.08;3.28;;;31.20;93.80;;;;;;4999026;28;20206;-66
2022/09/27 10:52:07;;;;;;;16.40;2.80;;;30.10;94.80;;;;;;5012095;28;20852;-66
2022/09/27 10:54:38;;;;;;;18.02;2.67;;;29.50;95.00;;;;;;4997575;28;20188;-67
2022/09/27 10:57:20;;;;;;;11.98;2.78;;;29.30;95.40;;;;;;4997362;28;20184;-66
2022/09/27 10:59:55;;;;;;;13.70;2.60;;;29.10;95.70;;;;;;5008192;28;20188;-65
2022/09/27 11:02:36;;;;;;;20.52;3.60;;;28.90;95.70;;;;;;5003488;28;20184;-65
2022/09/27 11:05:24;;;;;;;19.15;3.53;;;28.90;95.60;;;;;;5013544;28;20212;-65
2022/09/27 11:07:57;;;;;;;18.02;2.50;;;28.80;95.60;;;;;;4994395;28;20185;-66
2022/09/27 11:10:36;;;;;;;9.13;2.25;;;28.70;95.60;;;;;;5004040;28;20195;-66
2022/09/27 11:13:31;;;;;;;14.32;2.72;;;28.70;95.90;;;;;;5004367;28;20224;-66
2022/09/27 11:16:40;;;;;;;15.18;2.78;;;28.60;96.10;;;;;;4976982;28;20204;-66
2022/09/27 11:19:47;;;;;;;8.57;2.83;;;28.50;96.00;;;;;;5010418;28;20659;-65
2022/09/27 11:22:29;;;;;;;14.32;2.42;;;28.50;96.10;;;;;;4990568;28;20279;-65
2022/09/27 11:25:07;;;;;;;14.73;2.95;;;28.50;96.20;;;;;;5009517;28;20208;-66
2022/09/27 11:28:07;;;;;;;14.85;2.63;;;28.60;96.10;;;;;;5010183;28;20699;-65
2022/09/27 11:31:29;;;;;;;15.55;2.72;;;28.50;96.20;;;;;;5018994;28;20200;-65
2022/09/27 11:34:28;;;;;;;18.55;2.97;;;28.50;96.10;;;;;;5012599;28;20243;-66
2022/09/27 11:36:58;;;;;;;9.68;2.50;;;28.50;96.10;;;;;;4976679;28;20200;-65
2022/09/27 11:40:10;;;;;;;6.57;2.35;;;28.50;96.20;;;;;;5006336;28;20221;-65
2022/09/27 11:42:54;;;;;;;17.00;2.80;;;28.50;96.30;;;;;;5012808;28;20176;-66
2022/09/27 11:46:09;;;;;;;23.25;2.60;;;28.50;96.00;;;;;;5009204;28;20239;-66
2022/09/27 11:49:24;;;;;;;15.27;2.75;;;28.40;96.10;;;;;;5004504;28;20182;-66
2022/09/27 11:52:27;;;;;;;11.10;2.63;;;28.40;96.50;;;;;;4983648;28;20195;-65
2022/09/27 11:55:27;;;;;;;12.40;2.40;;;28.40;96.10;;;;;;4996574;28;20225;-66
2022/09/27 11:58:22;;;;;;;14.70;2.88;;;28.30;96.30;;;;;;5012857;28;21627;-66
2022/09/27 12:01:29;;;;;;;13.55;2.80;;;28.20;96.30;;;;;;5004544;28;20189;-66
2022/09/27 12:04:41;;;;;;;11.85;3.10;;;28.20;96.10;;;;;;5004663;28;20189;-68
2022/09/27 12:07:55;;;;;;;19.15;3.03;;;28.10;96.40;;;;;;5009970;28;20189;-65
2022/09/27 12:10:21;;;;;;;15.70;3.28;;;28.20;96.70;;;;;;5003637;28;20181;-65
2022/09/27 12:12:55;;;;;;;18.40;3.10;;;28.10;96.50;;;;;;5007420;28;20706;-65
2022/09/27 12:15:33;;;;;;;17.05;3.38;;;28.10;96.40;;;;;;5016236;28;20222;-65
2022/09/27 12:18:32;;;;;;;10.15;2.83;;;28.00;96.60;;;;;;5005673;28;20185;-65
2022/09/27 12:21:08;;;;;;;22.15;3.30;;;28.10;96.20;;;;;;5009326;28;20192;-66
2022/09/27 12:23:39;;;;;;;17.42;3.35;;;28.10;96.10;;;;;;5007161;28;20728;-66
2022/09/27 12:26:26;;;;;;;18.85;3.20;;;28.00;96.20;;;;;;4979905;28;20217;-66
2022/09/27 12:29:32;;;;;;;20.45;3.03;;;27.90;96.50;;;;;;4990563;28;20192;-66
2022/09/27 12:32:31;;;;;;;18.45;3.20;;;27.80;96.20;;;;;;5004493;28;20639;-66
2022/09/27 12:35:27;;;;;;;17.83;3.30;;;27.80;96.00;;;;;;4991589;28;20730;-65
2022/09/27 12:38:33;;;;;;;15.20;2.72;;;27.80;96.10;;;;;;5001639;28;20196;-66
2022/09/27 12:41:04;;;;;;;14.43;3.20;;;27.80;96.40;;;;;;4960849;28;20208;-66
2022/09/27 12:43:31;;;;;;;18.10;3.03;;;27.80;96.20;;;;;;4985185;28;20667;-66
2022/09/27 12:46:41;;;;;;;18.70;2.80;;;27.70;96.30;;;;;;4997766;28;20232;-66
2022/09/27 12:49:10;;;;;;;15.35;2.90;;;27.70;96.30;;;;;;4991049;28;20534;-66
2022/09/27 12:52:00;;;;;;;16.15;3.13;;;27.70;96.10;;;;;;5008167;28;20213;-66
2022/09/27 12:55:04;;;;;;;13.93;2.80;;;27.60;96.20;;;;;;5004567;28;20184;-66
2022/09/27 12:58:00;;;;;;;19.58;2.80;;;27.60;96.30;;;;;;5005901;28;20181;-66
2022/09/27 13:00:46;;;;;;;11.13;2.72;;;27.60;96.50;;;;;;5009020;28;20196;-66
2022/09/27 13:03:42;;;;;;;12.50;2.83;;;27.60;96.40;;;;;;5004096;28;20303;-66
2022/09/27 13:06:38;;;;;;;11.63;2.80;;;27.50;96.30;;;;;;4993220;28;20213;-66
2022/09/27 13:09:22;;;;;;;13.82;2.65;;;27.40;96.90;;;;;;5003203;28;20188;-66
2022/09/27 13:12:20;;;;;;;13.48;2.58;;;27.50;97.00;;;;;;5010215;28;20188;-66
2022/09/27 13:15:29;;;;;;;15.02;2.85;;;27.40;97.10;;;;;;5016276;28;20913;-66
2022/09/27 13:17:58;;;;;;;13.23;2.50;;;27.40;97.10;;;;;;5006017;28;20189;-66
2022/09/27 13:20:33;;;;;;;8.65;2.08;;;27.40;97.60;;;;;;4995254;28;20674;-67
2022/09/27 13:23:24;;;;;;;9.20;2.83;;;27.30;97.60;;;;;;5022338;28;20195;-67
2022/09/27 13:26:17;;;;;;;7.75;2.30;;;27.20;97.60;;;;;;4999091;28;20215;-66
2022/09/27 13:28:50;;;;;;;11.32;2.60;;;27.30;98.20;;;;;;5018477;28;20527;-66
2022/09/27 13:31:57;;;;;;;10.93;2.70;;;27.10;98.00;;;;;;5013367;28;20263;-66
2022/09/27 13:34:45;;;;;;;8.57;2.25;;;27.10;98.40;;;;;;5011420;28;20193;-66
2022/09/27 13:37:45;;;;;;;12.05;2.45;;;27.10;98.80;;;;;;4990190;28;20189;-66
2022/09/27 13:40:24;;;;;;;13.45;2.83;;;27.10;98.30;;;;;;5009229;28;20181;-66
2022/09/27 13:43:15;;;;;;;16.38;2.60;;;27.00;98.50;;;;;;5012865;28;20594;-66
2022/09/27 13:45:54;;;;;;;9.98;2.10;;;26.90;98.00;;;;;;5011470;28;20569;-66